Presque Isle, ME (04769)

2:58 AM EDT on July 27, 2016 (GMT -0400)
APRSWXNET | | Change Station

Elev 540 ft 46.70 °N, 68.03 °W | Updated 31 minutes ago

Partly Cloudy
Partly Cloudy
64 °F
Feels Like 64 °F
N
0
Wind Variable Wind from West
Gusts 0.0 mph

Today
High -- | Low -- °F
--% Chance of Precip.
Yesterday
High -- | Low -- °F
Precip. -- in
Pressure 29.94 in
Visibility 9.0 miles
Clouds Few 4700 ft
Dew Point 63 °F
Humidity 95%
Rainfall in
Snow Depth Not available.
5:06 AM 8:09 PM
Last Quarter, 46% visible
METAR KPQI 270656Z AUTO 00000KT 9SM FEW047 16/16 A2984 RMK AO2 SLP139 T01610161
Pressure 29.94 in
Visibility 9.0 miles
Clouds Few 4700 ft
Dew Point 63 °F
Humidity 95%
Rainfall in
Snow Depth Not available.
5:06 AM 8:09 PM
Last Quarter, 46% visible
METAR KPQI 270656Z AUTO 00000KT 9SM FEW047 16/16 A2984 RMK AO2 SLP139 T01610161

10-Day Weather Forecast

Almanac

Astronomy

Jul. 27, 2016 Rise Set
Actual Time
Civil Twilight
Nautical Twilight
Astronomical Twilight
Moon
Length of Visible Light
Length of Day
Tomorrow will be .
, % of the Moon is Illuminated

Today's Extremes

State Highs State Lows

Community

WunderPhotos

Upload Photos

1,927,818 photos uploaded!

WunderBlog® & News

Nearby

Air Quality

  Air Quality AQ Index Pollutant
Not available.

Snow Depth

Station Depth Elevation

Earthquake Activity

City Distance Mag. Time & Date
Minimum magnitude displayed is 2.5.

Coastal Water Temperatures

Place Temperature

Stations

Nearby Weather Stations

Station Location Temp. Windchill Dew Point Humidity Wind Precip. Elev Updated Type
                   

Watches & Warnings

There are currently no watches in effect.